PAL1805 RPLL-RPMD
Flight info
| Callsign | PAL1805 |
|---|---|
| Flight time | N/A |
| Altitude | 37000 |
| Route | IPATA2R IPATA B462 MASBA W9A BN W9 RIMAR RIMAR2R |
| Aircraft | B77W/H-L/LB1D1 |
Departure
| Time | 2026-05-07 15:52 |
|---|---|
| Airport | Ninoy Aquino International Airport (RPLL) |
Arrival
| Time | N/A |
|---|---|
| Airport | Francisco Bangoy International Airport (RPMD) |
| Time | Latitude | Longitude | Altitude | Speed | Heading |
|---|---|---|---|---|---|
| 2026-05-07 15:52 | 14.58094 | 121.20999 | 8724 ft | 272 kts | 83° |
| 2026-05-07 15:52 | 14.58317 | 121.22952 | 9394 ft | 277 kts | 83° |
| 2026-05-07 15:52 | 14.58282 | 121.24919 | 10075 ft | 281 kts | 102° |
| 2026-05-07 15:52 | 14.57495 | 121.26834 | 10468 ft | 300 kts | 124° |
| 2026-05-07 15:53 | 14.55952 | 121.28406 | 10788 ft | 321 kts | 140° |
| 2026-05-07 15:53 | 14.54130 | 121.29836 | 11225 ft | 338 kts | 141° |
| 2026-05-07 15:53 | 14.52207 | 121.31313 | 11685 ft | 353 kts | 141° |
| 2026-05-07 15:53 | 14.50168 | 121.32875 | 12167 ft | 369 kts | 142° |
| 2026-05-07 15:54 | 14.48089 | 121.34466 | 12661 ft | 382 kts | 142° |
| 2026-05-07 15:54 | 14.45903 | 121.36139 | 13388 ft | 390 kts | 142° |
| 2026-05-07 15:54 | 14.43736 | 121.37795 | 14199 ft | 395 kts | 142° |
| 2026-05-07 15:54 | 14.41504 | 121.39501 | 15015 ft | 401 kts | 142° |
| 2026-05-07 15:55 | 14.39261 | 121.41215 | 15847 ft | 407 kts | 142° |
| 2026-05-07 15:55 | 14.36958 | 121.42976 | 16629 ft | 413 kts | 142° |
| 2026-05-07 15:55 | 14.34645 | 121.44742 | 17390 ft | 420 kts | 142° |
| 2026-05-07 15:55 | 14.32270 | 121.46556 | 18202 ft | 425 kts | 142° |
| 2026-05-07 15:56 | 14.29884 | 121.48377 | 19025 ft | 429 kts | 142° |
| 2026-05-07 15:56 | 14.27479 | 121.50214 | 19815 ft | 433 kts | 142° |
| 2026-05-07 15:56 | 14.25042 | 121.52072 | 20588 ft | 438 kts | 142° |
| 2026-05-07 15:56 | 14.22592 | 121.53941 | 21321 ft | 443 kts | 142° |
| 2026-05-07 15:57 | 14.20097 | 121.55843 | 22043 ft | 448 kts | 142° |
| 2026-05-07 15:57 | 14.17557 | 121.57779 | 22755 ft | 453 kts | 142° |